Terminal Aerodrome Forecast
Issued by NWS Grand Junction, CO

Home | Current Version | Previous Version | Text Only | Print | Product List | Glossary On
Versions: 1 2 3 4 5 6 7 8 9 10 11 12 13 14 15 16 17 18 19 20 21 22 23 24 25 26 27 28
000
FTUS45 KGJT 041120
TAFGJT
TAF
KGJT 041120Z 0412/0512 10008KT P6SM SCT110 SCT200
     FM041600 17005KT P6SM SCT100 SCT200
     FM041900 28007KT P6SM VCSH SCT100 BKN200
     FM042200 20009KT P6SM VCSH BKN090
     FM050200 11008KT P6SM SCT100=

USA.gov is the U.S. government's official web portal to all federal, state and local government web resources and services.